CNC7 weather

Lake Muskoka/Mortimer'S Point Seaplane Base
Port Carling, Ontario, Canada

Public forecast

Using degrees Celsius for public forecast. Weather courtesy of forecast.io.

Closest aviation weather report (METAR) to Lake Muskoka/Mortimer'S Point Seaplane Base

Closest report is Muskoka Airport, 11.8 nm (21.9 km) ESE. Retrieved 2019/11/15 09:43 UTC (0 seconds ago):

CYQA 150943Z AUTO 23011G16KT 1 3/4SM -FZRA -SN OVC006 M01/M02 A2997 RMK ICG SLP163

Closest aviation forecast (TAF) to Lake Muskoka/Mortimer'S Point Seaplane Base

Forecast is more than 12 hours old.

Closest forecast is Muskoka Airport, 11.8 nm (21.9 km) ESE. Retrieved 2019/11/14 20:00 UTC (13 hours ago):

TAF CYQA 141938Z 1420/1503 19008KT P6SM OVC025 TEMPO 1420/1503 21/2SM -SHSN OVC015 RMK FCST BASED ON AUTO OBS NXT FCST WILL BE ISSUED AT 151245Z